Lambay — A8YA6 — position and weather

sailwx.info

Track history (hours):
 
Tides and Currents Weather Stations Pressure Air Temp Water Temp Dewpoint Dewpoint Depression Visibility Wind Speed Wind Dir Waves Ship Positions

Lambay

Last reported at 2017-Nov-28 06:20 UTC. Time now 2018-Feb-24 08:40 UTC.
Position N 25°13' E 122°37'.
Warning: this ship's position is months out of date.

Length 225 m; draft 11.6 m.

Type: Cargo ship. MMSI: 636015008.

Date/timePositionNaut miles runAvg speedWind from/ knotsBaromVisibWave heightAir tempDewpointWater temp
2017-Nov-28 06:20N 25°13' E 122°37'513.3
2017-Nov-28 05:59N 25°09' E 122°36'714.0
2017-Nov-28 05:31N 25°02' E 122°34'1413.8
2017-Nov-28 04:30N 24°48' E 122°32'714.4
2017-Nov-28 04:00N 24°41' E 122°31'713.7
2017-Nov-28 03:30N 24°35' E 122°29'714.3
2017-Nov-28 03:01N 24°28' E 122°27'714.0
2017-Nov-28 02:31N 24°21' E 122°25'714.1
2017-Nov-28 02:01N 24°14' E 122°24'713.8
2017-Nov-28 01:30N 24°07' E 122°22'713.4
2017-Nov-28 01:01N 24°01' E 122°20'713.4
2017-Nov-28 00:30N 23°54' E 122°19'714.3
2017-Nov-28 00:00N 23°47' E 122°17'  
Track history (hours):
 
Tides and Currents Weather Stations Pressure Air Temp Water Temp Dewpoint Dewpoint Depression Visibility Wind Speed Wind Dir Waves Ship Positions

Lambay

Last reported at 2017-Nov-28 06:20 UTC. Time now 2018-Feb-24 08:40 UTC.
Position N 25°13' E 122°37'.
Warning: this ship's position is months out of date.

Length 225 m; draft 11.6 m.

Type: Cargo ship. MMSI: 636015008.

Date/timePositionNaut miles runAvg speedWind from/ knotsBaromVisibWave heightAir tempDewpointWater temp
2017-Nov-28 06:20N 25°13' E 122°37'513.3
2017-Nov-28 05:59N 25°09' E 122°36'714.0
2017-Nov-28 05:31N 25°02' E 122°34'1413.8
2017-Nov-28 04:30N 24°48' E 122°32'714.4
2017-Nov-28 04:00N 24°41' E 122°31'713.7
2017-Nov-28 03:30N 24°35' E 122°29'714.3
2017-Nov-28 03:01N 24°28' E 122°27'714.0
2017-Nov-28 02:31N 24°21' E 122°25'714.1
2017-Nov-28 02:01N 24°14' E 122°24'713.8
2017-Nov-28 01:30N 24°07' E 122°22'713.4
2017-Nov-28 01:01N 24°01' E 122°20'713.4
2017-Nov-28 00:30N 23°54' E 122°19'714.3
2017-Nov-28 00:00N 23°47' E 122°17'  

Dump ship's entire track history